createdAt,value
2018-09-23T00:01:39.872Z,9.20
2018-09-23T00:04:08.327Z,9.10
2018-09-23T00:06:37.032Z,9.77
2018-09-23T00:09:07.162Z,9.20
2018-09-23T00:11:35.341Z,10.73
2018-09-23T00:14:04.164Z,9.83
2018-09-23T00:16:32.573Z,8.37
2018-09-23T00:19:00.800Z,10.10
2018-09-23T00:21:29.516Z,10.00
2018-09-23T00:23:58.389Z,10.53
2018-09-23T00:26:26.939Z,10.03
2018-09-23T00:28:55.115Z,9.47
2018-09-23T00:31:23.718Z,9.87
2018-09-23T00:33:52.408Z,8.90
2018-09-23T00:36:20.837Z,10.73
2018-09-23T00:38:49.484Z,9.70
2018-09-23T00:41:17.673Z,10.10
2018-09-23T00:43:46.480Z,8.77
2018-09-23T00:46:15.270Z,11.30
2018-09-23T00:48:43.862Z,13.80
2018-09-23T00:51:14.132Z,10.40
2018-09-23T00:53:42.315Z,9.70
2018-09-23T00:56:11.205Z,10.37
2018-09-23T00:58:39.888Z,9.90
2018-09-23T01:01:08.936Z,10.40
2018-09-23T01:03:37.839Z,9.00
2018-09-23T01:06:06.737Z,9.33
2018-09-23T01:08:35.817Z,7.73
2018-09-23T01:11:04.422Z,8.83
2018-09-23T01:13:33.162Z,8.00
2018-09-23T01:16:01.781Z,8.10
2018-09-23T01:18:30.394Z,9.27
2018-09-23T01:20:59.872Z,9.00
2018-09-23T01:23:28.490Z,7.93
2018-09-23T01:25:57.254Z,8.23
2018-09-23T01:28:25.925Z,7.67
2018-09-23T01:30:54.624Z,7.30
2018-09-23T01:33:22.772Z,6.70
2018-09-23T01:35:51.200Z,6.80
2018-09-23T01:38:19.817Z,6.00
2018-09-23T01:40:47.997Z,6.07
2018-09-23T01:43:16.785Z,6.23
2018-09-23T01:45:45.306Z,6.13
2018-09-23T01:48:13.839Z,6.23
2018-09-23T01:50:42.667Z,5.00
2018-09-23T01:53:11.265Z,5.50
2018-09-23T01:55:39.962Z,5.23
2018-09-23T01:58:08.492Z,5.70
2018-09-23T02:00:37.141Z,6.10
2018-09-23T02:03:06.114Z,6.90
2018-09-23T02:05:34.305Z,6.83
2018-09-23T02:08:02.504Z,6.30
2018-09-23T02:10:30.687Z,5.63
2018-09-23T02:12:58.979Z,6.53
2018-09-23T02:15:27.199Z,6.40
2018-09-23T02:17:55.760Z,6.90
2018-09-23T02:20:23.921Z,6.13
2018-09-23T02:22:52.129Z,7.27
2018-09-23T02:25:20.289Z,6.30
2018-09-23T02:27:48.449Z,6.43
2018-09-23T02:30:16.636Z,7.20
2018-09-23T02:32:44.799Z,7.13
2018-09-23T02:35:13.000Z,7.80
2018-09-23T02:37:42.095Z,7.07
2018-09-23T02:40:10.837Z,6.83
2018-09-23T02:42:38.996Z,7.50
2018-09-23T02:45:07.157Z,6.90
2018-09-23T02:47:36.353Z,7.33
2018-09-23T02:50:04.517Z,6.17
2018-09-23T02:52:33.568Z,6.37
2018-09-23T02:55:01.745Z,7.53
2018-09-23T02:57:29.905Z,7.57
2018-09-23T02:59:58.103Z,8.00
2018-09-23T03:02:26.268Z,7.20
2018-09-23T03:04:54.443Z,7.37
2018-09-23T03:07:23.393Z,7.40
2018-09-23T03:09:52.248Z,6.40
2018-09-23T03:12:20.404Z,6.13
2018-09-23T03:14:49.432Z,6.30
2018-09-23T03:17:17.634Z,6.93
2018-09-23T03:19:45.822Z,7.10
2018-09-23T03:22:14.790Z,5.80
2018-09-23T03:24:42.960Z,6.17
2018-09-23T03:27:11.097Z,6.57
2018-09-23T03:29:39.289Z,5.63
2018-09-23T03:32:08.120Z,5.30
2018-09-23T03:34:36.346Z,5.47
2018-09-23T03:37:04.552Z,5.40
2018-09-23T03:39:32.697Z,6.17
2018-09-23T03:42:00.964Z,4.93
2018-09-23T03:44:29.115Z,4.37
2018-09-23T03:46:57.309Z,5.53
2018-09-23T03:49:25.594Z,5.10
2018-09-23T03:51:53.771Z,3.80
2018-09-23T03:54:25.245Z,3.60
2018-09-23T03:56:53.467Z,4.37
2018-09-23T03:59:22.419Z,4.17
2018-09-23T04:01:50.564Z,4.27
2018-09-23T04:04:19.719Z,4.63
2018-09-23T04:06:47.854Z,3.90
2018-09-23T04:09:16.025Z,4.90
2018-09-23T04:11:44.466Z,3.10
2018-09-23T04:14:12.642Z,3.83
2018-09-23T04:16:40.780Z,3.90
2018-09-23T04:19:08.973Z,3.00
2018-09-23T04:21:37.178Z,2.77
2018-09-23T04:24:05.346Z,2.67
2018-09-23T04:26:33.573Z,3.50
2018-09-23T04:29:01.752Z,3.43
2018-09-23T04:31:29.920Z,2.60
2018-09-23T04:33:58.117Z,2.57
2018-09-23T04:36:26.290Z,2.50
2018-09-23T04:38:54.608Z,2.60
2018-09-23T04:41:22.739Z,2.20
2018-09-23T04:43:50.924Z,2.10
2018-09-23T04:46:19.117Z,2.60
2018-09-23T04:48:47.279Z,3.10
2018-09-23T04:51:15.456Z,2.67
2018-09-23T04:53:44.333Z,2.60
2018-09-23T04:56:12.913Z,2.73
2018-09-23T04:58:41.349Z,2.40
2018-09-23T05:01:09.549Z,2.20
2018-09-23T05:03:38.172Z,2.57
2018-09-23T05:06:06.949Z,2.03
2018-09-23T05:08:35.869Z,2.30
2018-09-23T05:11:04.774Z,2.47
2018-09-23T05:13:32.912Z,2.33
2018-09-23T05:16:01.128Z,1.77
2018-09-23T05:18:29.273Z,2.00
2018-09-23T05:20:58.324Z,2.10
2018-09-23T05:23:26.557Z,2.50
2018-09-23T05:25:54.725Z,2.43
2018-09-23T05:28:23.002Z,2.07
2018-09-23T05:30:51.221Z,1.87
2018-09-23T05:33:19.332Z,1.70
2018-09-23T05:35:47.488Z,2.30
2018-09-23T05:38:15.666Z,2.50
2018-09-23T05:40:43.850Z,2.17
2018-09-23T05:43:12.533Z,2.10
2018-09-23T05:45:40.652Z,1.90
2018-09-23T05:48:09.800Z,2.97
2018-09-23T05:50:37.964Z,2.77
2018-09-23T05:53:06.139Z,1.93
2018-09-23T05:55:34.349Z,1.97
2018-09-23T05:58:02.509Z,1.87
2018-09-23T06:00:34.947Z,2.17
2018-09-23T06:03:03.175Z,1.90
2018-09-23T06:05:37.913Z,2.43
2018-09-23T06:08:06.060Z,2.57
2018-09-23T06:10:34.220Z,2.47
2018-09-23T06:13:03.253Z,2.10
2018-09-23T06:15:31.435Z,2.70
2018-09-23T06:17:59.584Z,2.00
2018-09-23T06:20:27.748Z,2.83
2018-09-23T06:22:55.957Z,1.90
2018-09-23T06:25:24.248Z,1.77
2018-09-23T06:27:53.150Z,1.77
2018-09-23T06:30:21.330Z,1.97
2018-09-23T06:32:49.500Z,2.10
2018-09-23T06:35:18.256Z,2.00
2018-09-23T06:37:46.391Z,2.37
2018-09-23T06:40:15.323Z,2.10
2018-09-23T06:42:43.989Z,2.80
2018-09-23T06:45:12.165Z,2.27
2018-09-23T06:47:40.301Z,1.87
2018-09-23T06:50:08.545Z,2.57
2018-09-23T06:52:36.711Z,1.30
2018-09-23T06:55:05.272Z,2.10
2018-09-23T06:57:34.009Z,2.30
2018-09-23T07:00:02.177Z,2.50
2018-09-23T07:02:31.124Z,1.77
2018-09-23T07:04:59.323Z,0.97
2018-09-23T07:07:27.424Z,2.00
2018-09-23T07:09:55.589Z,1.23
2018-09-23T07:12:24.350Z,1.70
2018-09-23T07:14:52.556Z,1.50
2018-09-23T07:17:20.775Z,1.37
2018-09-23T07:19:48.928Z,2.03
2018-09-23T07:22:17.121Z,1.17
2018-09-23T07:24:45.290Z,1.37
2018-09-23T07:27:13.808Z,1.30
2018-09-23T07:29:42.006Z,2.50
2018-09-23T07:32:10.493Z,1.93
2018-09-23T07:34:39.257Z,1.20
2018-09-23T07:37:07.492Z,1.17
2018-09-23T07:39:35.977Z,1.10
2018-09-23T07:42:04.136Z,1.10
2018-09-23T07:44:32.324Z,1.20
2018-09-23T07:47:00.525Z,1.20
2018-09-23T07:49:28.685Z,1.00
2018-09-23T07:51:56.845Z,1.30
2018-09-23T07:54:25.037Z,0.87
2018-09-23T07:56:53.999Z,0.83
2018-09-23T07:59:22.232Z,1.60
2018-09-23T08:01:50.428Z,0.93
2018-09-23T08:04:19.127Z,0.80
2018-09-23T08:06:47.269Z,1.60
2018-09-23T08:09:15.556Z,1.00
2018-09-23T08:11:43.753Z,1.03
2018-09-23T08:14:12.227Z,1.00
2018-09-23T08:16:40.198Z,1.50
2018-09-23T08:19:08.829Z,1.57
2018-09-23T08:21:37.213Z,1.63
2018-09-23T08:24:05.569Z,1.67
2018-09-23T08:26:33.794Z,1.73
2018-09-23T08:29:07.446Z,1.20
2018-09-23T08:31:35.770Z,1.20
2018-09-23T08:34:03.936Z,1.07
2018-09-23T08:36:32.160Z,1.30
2018-09-23T08:39:00.867Z,0.80
2018-09-23T08:41:29.037Z,0.87
2018-09-23T08:43:57.189Z,1.33
2018-09-23T08:46:25.672Z,1.07
2018-09-23T08:48:53.856Z,0.80
2018-09-23T08:51:22.003Z,1.10
2018-09-23T08:53:50.180Z,0.93
2018-09-23T08:56:18.387Z,1.10
2018-09-23T08:58:46.537Z,0.70
2018-09-23T09:01:15.228Z,0.80
2018-09-23T09:03:43.383Z,0.97
2018-09-23T09:06:11.605Z,0.90
2018-09-23T09:08:39.777Z,1.43
2018-09-23T09:11:07.936Z,1.30
2018-09-23T09:13:36.564Z,1.20
2018-09-23T09:16:04.861Z,1.50
2018-09-23T09:18:36.237Z,1.50
2018-09-23T09:21:04.745Z,1.10
2018-09-23T09:23:33.544Z,1.23
2018-09-23T09:26:01.727Z,1.40
2018-09-23T09:28:29.910Z,1.20
2018-09-23T09:30:58.062Z,1.10
2018-09-23T09:33:26.264Z,1.20
2018-09-23T09:35:54.453Z,1.27
2018-09-23T09:38:22.751Z,1.60
2018-09-23T09:40:51.144Z,1.30
2018-09-23T09:43:19.323Z,1.47
2018-09-23T09:45:47.621Z,1.20
2018-09-23T09:48:15.780Z,1.07
2018-09-23T09:50:43.947Z,1.40
2018-09-23T09:53:12.339Z,1.73
2018-09-23T09:55:40.484Z,1.60
2018-09-23T09:58:08.687Z,1.20
2018-09-23T10:00:36.945Z,3.23
2018-09-23T10:03:09.940Z,1.30
2018-09-23T10:05:38.099Z,3.10
2018-09-23T10:08:06.809Z,1.27
2018-09-23T10:10:34.956Z,1.70
2018-09-23T10:13:03.272Z,1.77
2018-09-23T10:15:31.435Z,2.30
2018-09-23T10:17:59.739Z,1.60
2018-09-23T10:20:28.229Z,1.80
2018-09-23T10:22:56.483Z,1.27
2018-09-23T10:25:24.617Z,1.40
2018-09-23T10:27:53.071Z,1.83
2018-09-23T10:30:21.245Z,1.40
2018-09-23T10:32:49.405Z,1.47
2018-09-23T10:35:17.853Z,1.83
2018-09-23T10:37:45.997Z,1.90
2018-09-23T10:40:14.181Z,2.00
2018-09-23T10:42:42.324Z,2.20
2018-09-23T10:45:10.521Z,2.30
2018-09-23T10:47:38.728Z,2.00
2018-09-23T10:50:06.910Z,2.40
2018-09-23T10:52:35.216Z,1.23
2018-09-23T10:55:03.412Z,1.63
2018-09-23T10:57:31.553Z,1.77
2018-09-23T10:59:59.793Z,2.27
2018-09-23T11:02:27.984Z,2.23
2018-09-23T11:04:56.243Z,2.20
2018-09-23T11:07:24.425Z,3.30
2018-09-23T11:09:52.667Z,3.30
2018-09-23T11:12:20.986Z,3.87
2018-09-23T11:14:49.316Z,3.93
2018-09-23T11:17:17.452Z,4.60
2018-09-23T11:19:45.697Z,3.80
2018-09-23T11:22:13.817Z,5.57
2018-09-23T11:24:42.004Z,7.13
2018-09-23T11:27:10.648Z,6.27
2018-09-23T11:29:38.810Z,8.40
2018-09-23T11:32:07.109Z,6.30
2018-09-23T11:34:35.288Z,5.43
2018-09-23T11:37:03.434Z,5.40
2018-09-23T11:39:31.595Z,3.40
2018-09-23T11:41:59.791Z,2.77
2018-09-23T11:44:27.920Z,2.63
2018-09-23T11:46:56.129Z,2.60
2018-09-23T11:49:24.325Z,2.67
2018-09-23T11:51:52.541Z,2.27
2018-09-23T11:54:20.820Z,1.77
2018-09-23T11:56:48.981Z,1.10
2018-09-23T11:59:17.163Z,1.50
2018-09-23T12:01:45.317Z,1.37
2018-09-23T12:04:13.484Z,1.20
2018-09-23T12:06:41.732Z,1.83
2018-09-23T12:09:11.572Z,2.07
2018-09-23T12:11:39.748Z,1.80
2018-09-23T12:14:07.969Z,2.10
2018-09-23T12:16:36.194Z,2.00
2018-09-23T12:19:04.393Z,1.80
2018-09-23T12:21:32.841Z,2.13
2018-09-23T12:24:00.985Z,1.47
2018-09-23T12:26:29.173Z,2.03
2018-09-23T12:28:57.393Z,1.93
2018-09-23T12:31:25.571Z,2.13
2018-09-23T12:33:53.774Z,1.50
2018-09-23T12:36:21.966Z,1.97
2018-09-23T12:38:50.134Z,1.77
2018-09-23T12:41:18.329Z,1.90
2018-09-23T12:43:46.588Z,1.97
2018-09-23T12:46:14.744Z,1.50
2018-09-23T12:48:42.925Z,3.53
2018-09-23T12:51:11.127Z,1.87
2018-09-23T12:53:39.336Z,2.83
2018-09-23T12:56:07.465Z,3.00
2018-09-23T12:58:35.657Z,3.23
2018-09-23T13:01:03.804Z,3.60
2018-09-23T13:03:32.022Z,3.83
2018-09-23T13:06:00.289Z,2.40
2018-09-23T13:08:28.416Z,2.50
2018-09-23T13:10:56.616Z,2.80
2018-09-23T13:13:24.792Z,3.20
2018-09-23T13:15:53.125Z,3.20
2018-09-23T13:18:21.392Z,3.13
2018-09-23T13:20:49.510Z,1.83
2018-09-23T13:23:17.654Z,2.17
2018-09-23T13:25:45.949Z,2.50
2018-09-23T13:28:15.300Z,2.33
2018-09-23T13:30:43.453Z,2.50
2018-09-23T13:33:11.656Z,2.10
2018-09-23T13:35:39.864Z,2.10
2018-09-23T13:38:08.036Z,1.93
2018-09-23T13:40:36.305Z,2.13
2018-09-23T13:43:04.451Z,2.30
2018-09-23T13:45:32.665Z,2.80
2018-09-23T13:48:00.840Z,2.20
2018-09-23T13:50:29.013Z,2.57
2018-09-23T13:52:57.163Z,2.13
2018-09-23T13:55:25.364Z,2.17
2018-09-23T13:57:53.524Z,3.10
2018-09-23T14:00:21.751Z,3.33
2018-09-23T14:02:49.995Z,3.50
2018-09-23T14:05:18.130Z,3.00
2018-09-23T14:07:46.314Z,4.33
2018-09-23T14:10:14.460Z,3.00
2018-09-23T14:12:42.676Z,3.27
2018-09-23T14:15:10.824Z,2.70
2018-09-23T14:17:39.003Z,3.20
2018-09-23T14:20:07.200Z,3.30
2018-09-23T14:22:35.353Z,2.70
2018-09-23T14:25:03.682Z,3.90
2018-09-23T14:27:31.857Z,4.00
2018-09-23T14:29:59.996Z,4.13
2018-09-23T14:32:28.209Z,4.80
2018-09-23T14:34:56.432Z,4.07
2018-09-23T14:37:24.586Z,4.70
2018-09-23T14:39:52.769Z,4.67
2018-09-23T14:42:20.947Z,4.77
2018-09-23T14:44:49.096Z,5.43
2018-09-23T14:47:17.444Z,4.73
2018-09-23T14:49:45.647Z,4.87
2018-09-23T14:52:13.811Z,5.43
2018-09-23T14:54:42.172Z,6.40
2018-09-23T14:57:10.180Z,7.63
2018-09-23T14:59:38.353Z,5.90
2018-09-23T15:02:06.701Z,5.53
2018-09-23T15:04:34.842Z,6.77
2018-09-23T15:07:02.997Z,7.13
2018-09-23T15:09:32.141Z,6.23
2018-09-23T15:12:00.285Z,5.00
2018-09-23T15:14:28.441Z,5.80
2018-09-23T15:16:56.616Z,4.97
2018-09-23T15:19:25.789Z,4.97
2018-09-23T15:21:53.948Z,4.60
2018-09-23T15:24:22.082Z,5.60
2018-09-23T15:26:50.245Z,7.30
2018-09-23T15:29:18.429Z,5.87
2018-09-23T15:31:46.696Z,6.63
2018-09-23T15:34:14.865Z,5.50
2018-09-23T15:36:43.016Z,7.30
2018-09-23T15:39:11.236Z,5.10
2018-09-23T15:41:39.425Z,6.00
2018-09-23T15:44:07.591Z,5.03
2018-09-23T15:46:35.980Z,5.67
2018-09-23T15:49:04.142Z,6.43
2018-09-23T15:51:32.293Z,5.80
2018-09-23T15:54:00.492Z,5.47
2018-09-23T15:56:28.636Z,6.23
2018-09-23T15:58:56.784Z,5.93
2018-09-23T16:01:25.006Z,6.03
2018-09-23T16:03:53.184Z,5.57
2018-09-23T16:06:21.378Z,7.50
2018-09-23T16:08:49.553Z,6.60
2018-09-23T16:11:17.746Z,6.27
2018-09-23T16:13:45.977Z,7.07
2018-09-23T16:16:14.180Z,7.33
2018-09-23T16:18:42.474Z,7.10
2018-09-23T16:21:10.532Z,6.50
2018-09-23T16:23:38.804Z,7.60
2018-09-23T16:26:07.124Z,6.40
2018-09-23T16:28:35.653Z,5.73
2018-09-23T16:31:03.912Z,6.37
2018-09-23T16:33:32.297Z,7.50
2018-09-23T16:36:00.572Z,6.57
2018-09-23T16:38:29.178Z,6.77
2018-09-23T16:40:57.338Z,6.40
2018-09-23T16:43:25.692Z,6.70
2018-09-23T16:45:53.947Z,5.93
2018-09-23T16:48:22.235Z,6.13
2018-09-23T16:50:50.436Z,5.60
2018-09-23T16:53:18.627Z,6.13
2018-09-23T16:55:46.891Z,4.33
2018-09-23T16:58:15.389Z,4.77
2018-09-23T17:00:44.221Z,3.73
2018-09-23T17:03:12.719Z,4.37
2018-09-23T17:05:40.889Z,3.73
2018-09-23T17:08:10.266Z,3.40
2018-09-23T17:10:38.444Z,3.27
2018-09-23T17:13:06.699Z,3.70
2018-09-23T17:15:34.939Z,3.23
2018-09-23T17:18:03.213Z,3.23
2018-09-23T17:20:31.381Z,2.20
2018-09-23T17:22:59.693Z,3.07
2018-09-23T17:25:27.852Z,3.30
2018-09-23T17:27:56.793Z,5.67
2018-09-23T17:30:25.573Z,7.13
2018-09-23T17:32:53.764Z,7.60
2018-09-23T17:35:22.336Z,8.20
2018-09-23T17:37:50.516Z,8.97
2018-09-23T17:40:18.648Z,9.70
2018-09-23T17:42:46.783Z,10.20
2018-09-23T17:45:15.010Z,8.73
2018-09-23T17:47:43.161Z,7.90
2018-09-23T17:50:11.401Z,7.57
2018-09-23T17:52:39.584Z,7.07
2018-09-23T17:55:07.734Z,6.63
2018-09-23T17:57:36.290Z,6.50
2018-09-23T18:00:04.450Z,7.20
2018-09-23T18:02:32.605Z,5.80
2018-09-23T18:05:00.761Z,5.43
2018-09-23T18:07:28.965Z,6.10
2018-09-23T18:09:57.197Z,7.00
2018-09-23T18:12:25.377Z,5.40
2018-09-23T18:14:53.501Z,5.93
2018-09-23T18:17:21.743Z,5.90
2018-09-23T18:20:56.666Z,5.07
2018-09-23T18:23:25.206Z,6.10
2018-09-23T18:25:53.339Z,5.50
2018-09-23T18:28:21.517Z,4.20
2018-09-23T18:30:49.637Z,5.23
2018-09-23T18:33:17.785Z,4.40
2018-09-23T18:35:45.977Z,4.70
2018-09-23T18:38:14.131Z,5.03
2018-09-23T18:40:42.797Z,4.53
2018-09-23T18:43:11.067Z,5.20
2018-09-23T18:45:39.236Z,5.47
2018-09-23T18:48:07.370Z,5.40
2018-09-23T18:50:35.530Z,6.63
2018-09-23T18:53:09.291Z,6.37
2018-09-23T18:55:42.381Z,5.70
2018-09-23T18:58:10.583Z,6.63
2018-09-23T19:00:38.988Z,6.40
2018-09-23T19:03:07.363Z,8.17
2018-09-23T19:05:35.485Z,5.63
2018-09-23T19:08:03.772Z,7.83
2018-09-23T19:10:32.301Z,8.00
2018-09-23T19:13:05.772Z,6.63
2018-09-23T19:15:34.549Z,7.27
2018-09-23T19:18:02.958Z,6.50
2018-09-23T19:20:31.117Z,7.70
2018-09-23T19:23:04.625Z,7.00
2018-09-23T19:25:32.822Z,9.00
2018-09-23T19:28:01.116Z,7.00
2018-09-23T19:30:29.292Z,6.37
2018-09-23T19:32:57.492Z,5.10
2018-09-23T19:35:25.992Z,4.50
2018-09-23T19:37:54.165Z,4.23
2018-09-23T19:40:22.306Z,4.63
2018-09-23T19:42:50.536Z,5.10
2018-09-23T19:45:18.713Z,3.83
2018-09-23T19:47:46.906Z,3.00
2018-09-23T19:50:15.081Z,3.33
2018-09-23T19:52:43.382Z,3.30
2018-09-23T19:55:11.557Z,3.50
2018-09-23T19:57:39.767Z,2.70
2018-09-23T20:00:08.095Z,2.67
2018-09-23T20:02:38.630Z,3.00
2018-09-23T20:05:06.798Z,3.00
2018-09-23T20:07:34.956Z,2.73
2018-09-23T20:10:03.164Z,2.60
2018-09-23T20:12:31.327Z,2.50
2018-09-23T20:14:59.504Z,2.60
2018-09-23T20:17:27.708Z,2.10
2018-09-23T20:19:55.859Z,2.67
2018-09-23T20:22:24.036Z,2.80
2018-09-23T20:24:54.291Z,2.43
2018-09-23T20:27:22.436Z,2.93
2018-09-23T20:29:50.618Z,2.60
2018-09-23T20:32:18.762Z,2.27
2018-09-23T20:34:46.941Z,2.63
2018-09-23T20:37:15.128Z,2.73
2018-09-23T20:39:43.260Z,3.60
2018-09-23T20:42:11.460Z,2.90
2018-09-23T20:44:39.618Z,4.10
2018-09-23T20:47:07.816Z,2.80
2018-09-23T20:49:35.969Z,3.20
2018-09-23T20:52:06.043Z,3.80
2018-09-23T20:54:34.173Z,4.17
2018-09-23T20:57:02.333Z,3.57
2018-09-23T20:59:30.520Z,4.90
2018-09-23T21:01:58.737Z,3.87
2018-09-23T21:04:26.926Z,4.47
2018-09-23T21:06:55.079Z,4.20
2018-09-23T21:09:23.488Z,4.67
2018-09-23T21:11:51.717Z,5.20
2018-09-23T21:14:19.864Z,4.43
2018-09-23T21:16:48.012Z,5.83
2018-09-23T21:19:16.343Z,5.10
2018-09-23T21:21:49.245Z,5.70
2018-09-23T21:24:17.840Z,5.63
2018-09-23T21:26:46.084Z,7.43
2018-09-23T21:29:14.328Z,6.27
2018-09-23T21:31:42.629Z,6.13
2018-09-23T21:34:10.851Z,7.77
2018-09-23T21:36:39.045Z,7.97
2018-09-23T21:39:08.529Z,7.50
2018-09-23T21:41:36.839Z,7.33
2018-09-23T21:44:05.099Z,7.73
2018-09-23T21:46:33.447Z,8.60
2018-09-23T21:49:01.767Z,7.07
2018-09-23T21:51:29.944Z,7.57
2018-09-23T21:53:58.250Z,7.00
2018-09-23T21:56:26.620Z,7.20
2018-09-23T21:58:54.798Z,8.07
2018-09-23T22:01:22.992Z,8.20
2018-09-23T22:03:51.168Z,8.50
2018-09-23T22:06:19.311Z,9.70
2018-09-23T22:08:47.480Z,10.30
2018-09-23T22:11:15.682Z,10.30
2018-09-23T22:13:49.160Z,10.23
2018-09-23T22:16:17.375Z,10.80
2018-09-23T22:18:48.731Z,9.70
2018-09-23T22:21:17.006Z,10.37
2018-09-23T22:23:45.157Z,9.20
2018-09-23T22:26:13.313Z,10.83
2018-09-23T22:28:41.494Z,9.57
2018-09-23T22:31:09.665Z,9.50
2018-09-23T22:33:37.860Z,10.27
2018-09-23T22:36:06.254Z,10.20
2018-09-23T22:38:34.495Z,9.80
2018-09-23T22:41:02.637Z,10.27
2018-09-23T22:43:30.804Z,8.93
2018-09-23T22:45:58.977Z,10.40
2018-09-23T22:48:27.121Z,10.00
2018-09-23T22:50:55.311Z,10.03
2018-09-23T22:53:23.475Z,10.07
2018-09-23T22:55:51.653Z,9.47
2018-09-23T22:58:19.782Z,10.70
2018-09-23T23:00:47.951Z,10.10
2018-09-23T23:03:16.069Z,9.73
2018-09-23T23:05:44.212Z,10.03
2018-09-23T23:08:12.385Z,9.60
2018-09-23T23:10:40.534Z,10.40
2018-09-23T23:13:08.685Z,11.00
2018-09-23T23:15:36.875Z,11.20
2018-09-23T23:18:05.022Z,9.87
2018-09-23T23:20:33.199Z,11.90
2018-09-23T23:23:01.348Z,9.90
2018-09-23T23:25:29.486Z,9.60
2018-09-23T23:27:57.645Z,10.13
2018-09-23T23:30:25.794Z,9.90
2018-09-23T23:32:53.936Z,11.27
2018-09-23T23:35:22.104Z,11.78
2018-09-23T23:37:50.259Z,11.40
2018-09-23T23:40:18.420Z,11.60
2018-09-23T23:42:46.586Z,11.30
2018-09-23T23:45:14.752Z,11.40
2018-09-23T23:47:42.952Z,11.50
2018-09-23T23:50:11.105Z,11.50
2018-09-23T23:52:39.248Z,11.70
2018-09-23T23:55:07.416Z,11.40
2018-09-23T23:57:35.568Z,10.20
